createdAt,value
2019-05-18T00:00:10.363Z,100686.30
2019-05-18T00:02:43.198Z,100682.91
2019-05-18T00:05:12.089Z,100685.44
2019-05-18T00:07:40.581Z,100683.35
2019-05-18T00:10:09.448Z,100685.64
2019-05-18T00:12:38.075Z,100686.57
2019-05-18T00:15:07.632Z,100688.36
2019-05-18T00:17:36.104Z,100684.50
2019-05-18T00:20:09.419Z,100682.11
2019-05-18T00:22:37.842Z,100681.64
2019-05-18T00:25:07.339Z,100683.28
2019-05-18T00:27:39.991Z,100683.09
2019-05-18T00:30:12.867Z,100681.03
2019-05-18T00:32:41.293Z,100676.62
2019-05-18T00:35:09.940Z,100683.02
2019-05-18T00:37:42.399Z,100673.70
2019-05-18T00:40:13.943Z,100678.95
2019-05-18T00:42:42.409Z,100674.08
2019-05-18T00:45:13.868Z,100677.69
2019-05-18T00:47:42.751Z,100675.97
2019-05-18T00:50:11.745Z,100670.50
2019-05-18T00:52:40.240Z,100668.36
2019-05-18T00:55:09.306Z,100660.69
2019-05-18T00:57:37.833Z,100669.70
2019-05-18T01:00:10.639Z,100671.55
2019-05-18T01:02:41.573Z,100675.74
2019-05-18T01:05:11.229Z,100673.30
2019-05-18T01:07:39.712Z,100671.94
2019-05-18T01:10:11.051Z,100674.70
2019-05-18T01:12:39.659Z,100667.33
2019-05-18T01:15:10.238Z,100668.67
2019-05-18T01:17:38.640Z,100656.98
2019-05-18T01:20:07.535Z,100656.20
2019-05-18T01:22:35.952Z,100657.72
2019-05-18T01:25:05.145Z,100658.77
2019-05-18T01:27:36.103Z,100656.00
2019-05-18T01:30:07.352Z,100655.84
2019-05-18T01:32:38.188Z,100655.52
2019-05-18T01:35:12.179Z,100650.09
2019-05-18T01:37:43.334Z,100654.30
2019-05-18T01:40:14.979Z,100647.09
2019-05-18T01:42:44.482Z,100647.09
2019-05-18T01:45:17.611Z,100639.95
2019-05-18T01:47:43.424Z,100647.75
2019-05-18T01:50:13.422Z,100645.88
2019-05-18T01:52:45.884Z,100643.36
2019-05-18T01:55:15.099Z,100643.75
2019-05-18T01:57:43.555Z,100643.36
2019-05-18T02:00:12.728Z,100642.41
2019-05-18T02:02:41.158Z,100643.20
2019-05-18T02:05:11.725Z,100638.67
2019-05-18T02:07:40.144Z,100635.02
2019-05-18T02:10:10.883Z,100636.52
2019-05-18T02:12:42.980Z,100643.33
2019-05-18T02:15:12.076Z,100638.94
2019-05-18T02:17:42.924Z,100639.88
2019-05-18T02:20:11.951Z,100645.81
2019-05-18T02:22:40.374Z,100637.27
2019-05-18T02:25:10.271Z,100643.05
2019-05-18T02:27:38.759Z,100645.81
2019-05-18T02:30:17.936Z,100642.62
2019-05-18T02:32:41.993Z,100636.79
2019-05-18T02:35:10.758Z,100637.93
2019-05-18T02:37:39.173Z,100633.59
2019-05-18T02:40:10.349Z,100636.59
2019-05-18T02:42:42.244Z,100637.98
2019-05-18T02:45:10.861Z,100635.02
2019-05-18T02:47:44.827Z,100638.15
2019-05-18T02:50:13.516Z,100634.07
2019-05-18T02:52:41.991Z,100631.89
2019-05-18T02:55:11.062Z,100628.76
2019-05-18T02:57:39.495Z,100635.16
2019-05-18T03:00:11.348Z,100629.22
2019-05-18T03:02:39.761Z,100628.32
2019-05-18T03:05:08.746Z,100625.70
2019-05-18T03:07:38.254Z,100627.11
2019-05-18T03:10:07.685Z,100630.86
2019-05-18T03:12:39.998Z,100624.80
2019-05-18T03:15:09.573Z,100625.17
2019-05-18T03:17:40.702Z,100618.17
2019-05-18T03:20:12.840Z,100631.53
2019-05-18T03:22:42.358Z,100626.98
2019-05-18T03:25:11.453Z,100628.78
2019-05-18T03:27:42.255Z,100625.45
2019-05-18T03:30:11.227Z,100623.06
2019-05-18T03:32:39.673Z,100628.40
2019-05-18T03:35:08.336Z,100624.52
2019-05-18T03:37:36.846Z,100620.19
2019-05-18T03:40:11.660Z,100627.44
2019-05-18T03:42:42.011Z,100617.89
2019-05-18T03:45:10.764Z,100619.13
2019-05-18T03:47:45.670Z,100618.85
2019-05-18T03:50:14.154Z,100617.11
2019-05-18T03:52:45.688Z,100618.83
2019-05-18T03:55:14.349Z,100625.10
2019-05-18T03:57:46.491Z,100618.83
2019-05-18T04:00:15.554Z,100623.98
2019-05-18T04:02:43.947Z,100619.44
2019-05-18T04:05:12.570Z,100619.55
2019-05-18T04:07:43.503Z,100620.20
2019-05-18T04:10:17.874Z,100622.16
2019-05-18T04:12:46.315Z,100623.39
2019-05-18T04:15:25.851Z,100625.23
2019-05-18T04:17:54.326Z,100619.07
2019-05-18T04:20:22.755Z,100617.91
2019-05-18T04:22:51.182Z,100618.48
2019-05-18T04:25:19.613Z,100611.61
2019-05-18T04:27:48.033Z,100610.73
2019-05-18T04:30:16.909Z,100607.02
2019-05-18T04:32:47.978Z,100609.01
2019-05-18T04:35:17.510Z,100605.94
2019-05-18T04:37:48.276Z,100609.30
2019-05-18T04:40:17.727Z,100612.70
2019-05-18T04:42:46.118Z,100615.23
2019-05-18T04:45:17.694Z,100615.89
2019-05-18T04:47:48.869Z,100628.25
2019-05-18T04:50:17.810Z,100631.14
2019-05-18T04:52:46.240Z,100635.31
2019-05-18T04:55:17.453Z,100635.07
2019-05-18T04:57:46.933Z,100631.95
2019-05-18T05:00:16.978Z,100632.47
2019-05-18T05:02:45.443Z,100631.88
2019-05-18T05:05:14.010Z,100634.42
2019-05-18T05:07:45.116Z,100640.34
2019-05-18T05:10:20.052Z,100636.80
2019-05-18T05:12:48.477Z,100635.56
2019-05-18T05:15:18.239Z,100634.12
2019-05-18T05:17:49.381Z,100632.29
2019-05-18T05:20:20.125Z,100634.47
2019-05-18T05:22:49.037Z,100634.73
2019-05-18T05:25:23.882Z,100628.48
2019-05-18T05:27:52.292Z,100623.53
2019-05-18T05:30:20.748Z,100620.45
2019-05-18T05:32:52.948Z,100617.00
2019-05-18T05:35:21.346Z,100616.27
2019-05-18T05:37:49.767Z,100617.33
2019-05-18T05:40:21.236Z,100630.41
2019-05-18T05:42:49.700Z,100619.58
2019-05-18T05:45:18.320Z,100623.44
2019-05-18T05:47:48.849Z,100619.38
2019-05-18T05:50:18.463Z,100613.21
2019-05-18T05:52:46.900Z,100607.31
2019-05-18T05:55:16.275Z,100608.39
2019-05-18T05:57:45.712Z,100613.66
2019-05-18T06:00:15.249Z,100609.38
2019-05-18T06:02:43.666Z,100605.86
2019-05-18T06:05:14.844Z,100602.61
2019-05-18T06:07:44.305Z,100599.65
2019-05-18T06:10:13.178Z,100602.22
2019-05-18T06:12:46.985Z,100600.28
2019-05-18T06:15:20.728Z,100598.47
2019-05-18T06:17:49.144Z,100601.94
2019-05-18T06:20:18.649Z,100598.87
2019-05-18T06:22:47.133Z,100603.94
2019-05-18T06:25:15.535Z,100591.71
2019-05-18T06:27:45.006Z,100601.81
2019-05-18T06:30:17.525Z,100615.31
2019-05-18T06:32:46.000Z,100614.69
2019-05-18T06:35:14.540Z,100609.52
2019-05-18T06:37:43.030Z,100607.86
2019-05-18T06:40:12.137Z,100614.44
2019-05-18T06:42:40.543Z,100611.98
2019-05-18T06:45:11.270Z,100620.95
2019-05-18T06:47:39.696Z,100617.50
2019-05-18T06:50:12.817Z,100619.69
2019-05-18T06:52:41.072Z,100620.57
2019-05-18T06:55:13.360Z,100628.10
2019-05-18T06:57:42.812Z,100625.66
2019-05-18T07:00:17.542Z,100633.78
2019-05-18T07:02:47.008Z,100634.72
2019-05-18T07:05:21.914Z,100626.16
2019-05-18T07:07:55.730Z,100636.02
2019-05-18T07:10:23.526Z,100621.83
2019-05-18T07:12:51.967Z,100621.17
2019-05-18T07:15:20.652Z,100617.19
2019-05-18T07:17:49.107Z,100612.61
2019-05-18T07:20:21.718Z,100623.55
2019-05-18T07:22:51.786Z,100616.93
2019-05-18T07:25:24.494Z,100620.96
2019-05-18T07:27:54.602Z,100621.80
2019-05-18T07:30:23.017Z,100622.88
2019-05-18T07:32:51.441Z,100617.69
2019-05-18T07:35:28.859Z,100620.98
2019-05-18T07:37:56.313Z,100622.17
2019-05-18T07:40:24.746Z,100623.00
2019-05-18T07:42:53.158Z,100622.23
2019-05-18T07:45:21.598Z,100621.82
2019-05-18T07:47:51.065Z,100621.48
2019-05-18T07:50:22.967Z,100612.85
2019-05-18T07:52:51.431Z,100617.57
2019-05-18T07:57:47.753Z,100625.80
2019-05-18T08:00:16.852Z,100622.31
2019-05-18T08:02:45.295Z,100616.87
2019-05-18T08:05:14.138Z,100619.17
2019-05-18T08:07:50.539Z,100615.77
2019-05-18T08:10:39.135Z,100622.42
2019-05-18T08:13:10.514Z,100611.89
2019-05-18T08:15:40.121Z,100606.97
2019-05-18T08:18:10.142Z,100615.90
2019-05-18T08:20:38.556Z,100609.28
2019-05-18T08:23:07.052Z,100607.92
2019-05-18T08:25:37.573Z,100605.83
2019-05-18T08:28:08.732Z,100610.66
2019-05-18T08:30:37.212Z,100607.06
2019-05-18T08:33:05.717Z,100609.81
2019-05-18T08:35:34.150Z,100609.83
2019-05-18T08:38:02.607Z,100610.55
2019-05-18T08:40:32.060Z,100612.50
2019-05-18T08:43:00.528Z,100614.56
2019-05-18T08:45:29.122Z,100620.50
2019-05-18T08:47:57.570Z,100614.73
2019-05-18T08:50:27.110Z,100614.16
2019-05-18T08:52:56.669Z,100608.17
2019-05-18T08:55:29.216Z,100608.62
2019-05-18T08:57:57.635Z,100611.08
2019-05-18T09:00:26.121Z,100604.70
2019-05-18T09:02:54.517Z,100606.41
2019-05-18T09:05:23.097Z,100604.56
2019-05-18T09:07:51.483Z,100606.86
2019-05-18T09:10:20.283Z,100609.25
2019-05-18T09:12:48.707Z,100601.64
2019-05-18T09:15:17.766Z,100596.10
2019-05-18T09:17:47.577Z,100596.72
2019-05-18T09:20:19.112Z,100601.56
2019-05-18T09:22:47.534Z,100595.69
2019-05-18T09:25:16.304Z,100592.17
2019-05-18T09:27:45.983Z,100592.50
2019-05-18T09:30:16.016Z,100594.11
2019-05-18T09:32:44.418Z,100590.81
2019-05-18T09:35:16.034Z,100590.79
2019-05-18T09:37:44.936Z,100592.44
2019-05-18T09:40:13.647Z,100590.69
2019-05-18T09:42:42.975Z,100584.58
2019-05-18T09:45:12.526Z,100584.27
2019-05-18T09:47:40.967Z,100582.84
2019-05-18T09:50:10.493Z,100584.07
2019-05-18T09:52:46.611Z,100575.49
2019-05-18T09:55:09.279Z,100581.54
2019-05-18T09:57:37.780Z,100580.34
2019-05-18T10:00:11.869Z,100577.00
2019-05-18T10:02:40.512Z,100586.83
2019-05-18T10:05:09.321Z,100583.83
2019-05-18T10:07:37.801Z,100573.54
2019-05-18T10:10:07.993Z,100575.09
2019-05-18T10:12:36.903Z,100571.64
2019-05-18T10:15:09.287Z,100564.88
2019-05-18T10:17:37.732Z,100564.88
2019-05-18T10:20:10.728Z,100568.14
2019-05-18T10:22:53.518Z,100567.19
2019-05-18T10:25:10.725Z,100563.50
2019-05-18T10:27:39.169Z,100564.19
2019-05-18T10:30:09.214Z,100563.48
2019-05-18T10:32:40.289Z,100553.81
2019-05-18T10:35:09.187Z,100559.38
2019-05-18T10:37:37.751Z,100551.75
2019-05-18T10:40:09.010Z,100546.91
2019-05-18T10:42:37.452Z,100543.20
2019-05-18T10:45:07.808Z,100533.91
2019-05-18T10:47:37.183Z,100533.96
2019-05-18T10:50:09.614Z,100536.42
2019-05-18T10:52:38.033Z,100525.84
2019-05-18T10:55:11.784Z,100529.97
2019-05-18T10:57:40.268Z,100529.97
2019-05-18T11:03:06.082Z,100526.88
2019-05-18T11:05:34.507Z,100521.45
2019-05-18T11:08:06.965Z,100516.45
2019-05-18T11:10:40.955Z,100514.86
2019-05-18T11:13:09.397Z,100513.45
2019-05-18T11:15:37.818Z,100512.91
2019-05-18T11:18:08.995Z,100511.36
2019-05-18T11:20:37.477Z,100510.03
2019-05-18T11:23:05.896Z,100512.26
2019-05-18T11:25:36.456Z,100511.01
2019-05-18T11:28:06.812Z,100508.05
2019-05-18T11:30:35.265Z,100510.23
2019-05-18T11:33:07.308Z,100505.75
2019-05-18T11:35:35.736Z,100501.34
2019-05-18T11:38:04.332Z,100509.64
2019-05-18T11:40:32.834Z,100499.33
2019-05-18T11:43:01.291Z,100498.51
2019-05-18T11:45:30.994Z,100504.33
2019-05-18T11:47:59.435Z,100499.55
2019-05-18T11:50:28.042Z,100495.95
2019-05-18T11:52:56.408Z,100507.83
2019-05-18T11:55:24.817Z,100496.22
2019-05-18T11:57:54.155Z,100498.47
2019-05-18T12:00:24.352Z,100496.61
2019-05-18T12:02:52.810Z,100496.50
2019-05-18T12:05:21.246Z,100490.83
2019-05-18T12:07:49.657Z,100483.78
2019-05-18T12:10:20.770Z,100486.26
2019-05-18T12:12:49.285Z,100490.38
2019-05-18T12:15:22.270Z,100485.97
2019-05-18T12:17:50.761Z,100478.33
2019-05-18T12:20:23.562Z,100479.70
2019-05-18T12:22:52.013Z,100479.05
2019-05-18T12:25:20.611Z,100481.31
2019-05-18T12:27:50.034Z,100477.72
2019-05-18T12:30:19.165Z,100475.05
2019-05-18T12:32:47.581Z,100463.04
2019-05-18T12:35:16.544Z,100461.41
2019-05-18T12:37:45.906Z,100465.36
2019-05-18T12:40:17.726Z,100464.88
2019-05-18T12:42:46.132Z,100460.82
2019-05-18T12:45:15.430Z,100462.11
2019-05-18T12:47:45.193Z,100468.89
2019-05-18T12:50:15.922Z,100464.38
2019-05-18T12:52:44.357Z,100459.53
2019-05-18T12:55:13.747Z,100466.86
2019-05-18T12:57:42.186Z,100471.34
2019-05-18T13:00:13.058Z,100462.64
2019-05-18T13:02:41.553Z,100461.59
2019-05-18T13:05:10.538Z,100463.97
2019-05-18T13:07:39.646Z,100455.45
2019-05-18T13:10:11.242Z,100454.39
2019-05-18T13:12:40.726Z,100451.80
2019-05-18T13:15:11.190Z,100446.07
2019-05-18T13:17:39.707Z,100446.36
2019-05-18T13:20:09.352Z,100443.68
2019-05-18T13:22:37.759Z,100444.13
2019-05-18T13:25:10.827Z,100448.52
2019-05-18T13:27:40.243Z,100452.70
2019-05-18T13:30:10.596Z,100445.06
2019-05-18T13:32:39.307Z,100444.59
2019-05-18T13:35:10.760Z,100445.83
2019-05-18T13:37:39.193Z,100442.54
2019-05-18T13:40:09.126Z,100442.70
2019-05-18T13:42:38.507Z,100439.12
2019-05-18T13:45:07.989Z,100439.75
2019-05-18T13:47:36.401Z,100430.98
2019-05-18T13:50:07.021Z,100434.47
2019-05-18T13:52:40.052Z,100434.47
2019-05-18T13:55:09.910Z,100427.91
2019-05-18T13:57:38.345Z,100423.52
2019-05-18T14:00:08.289Z,100423.47
2019-05-18T14:02:42.270Z,100430.75
2019-05-18T14:05:19.009Z,100433.26
2019-05-18T14:07:47.499Z,100434.02
2019-05-18T14:10:16.231Z,100426.09
2019-05-18T14:12:44.681Z,100423.77
2019-05-18T14:15:15.014Z,100426.82
2019-05-18T14:17:43.420Z,100427.63
2019-05-18T14:20:12.189Z,100429.97
2019-05-18T14:22:40.594Z,100427.17
2019-05-18T14:25:19.396Z,100432.36
2019-05-18T14:27:40.793Z,100423.61
2019-05-18T14:30:10.080Z,100428.03
2019-05-18T14:32:39.552Z,100427.17
2019-05-18T14:35:08.668Z,100417.65
2019-05-18T14:37:37.133Z,100416.83
2019-05-18T14:40:09.154Z,100414.81
2019-05-18T14:42:37.621Z,100409.55
2019-05-18T14:45:08.642Z,100407.65
2019-05-18T14:47:37.090Z,100411.22
2019-05-18T14:50:06.375Z,100413.05
2019-05-18T14:52:34.772Z,100407.29
2019-05-18T14:55:04.711Z,100407.59
2019-05-18T14:57:33.323Z,100404.91
2019-05-18T15:00:02.568Z,100411.86
2019-05-18T15:02:31.625Z,100405.00
2019-05-18T15:05:00.077Z,100403.59
2019-05-18T15:07:28.459Z,100417.58
2019-05-18T15:09:56.872Z,100420.59
2019-05-18T15:12:25.297Z,100410.56
2019-05-18T15:14:54.396Z,100412.95
2019-05-18T15:17:22.853Z,100414.85
2019-05-18T15:19:51.292Z,100412.77
2019-05-18T15:22:19.802Z,100413.09
2019-05-18T15:24:48.209Z,100409.59
2019-05-18T15:27:16.648Z,100402.03
2019-05-18T15:29:45.098Z,100404.98
2019-05-18T15:32:13.525Z,100402.00
2019-05-18T15:34:41.961Z,100398.89
2019-05-18T15:37:10.365Z,100392.57
2019-05-18T15:39:42.583Z,100399.66
2019-05-18T15:42:10.246Z,100397.02
2019-05-18T15:44:38.643Z,100399.91
2019-05-18T15:47:07.126Z,100397.78
2019-05-18T15:49:35.638Z,100391.80
2019-05-18T15:52:04.031Z,100396.42
2019-05-18T15:54:36.173Z,100394.34
2019-05-18T15:57:02.634Z,100397.67
2019-05-18T15:59:31.109Z,100392.00
2019-05-18T16:02:00.674Z,100395.34
2019-05-18T16:04:29.097Z,100394.42
2019-05-18T16:07:01.263Z,100397.18
2019-05-18T16:09:29.678Z,100394.27
2019-05-18T16:12:02.102Z,100404.38
2019-05-18T16:14:30.530Z,100398.00
2019-05-18T16:16:58.995Z,100400.39
2019-05-18T16:19:34.766Z,100393.28
2019-05-18T16:22:03.583Z,100395.16
2019-05-18T16:24:33.239Z,100389.09
2019-05-18T16:27:01.650Z,100392.55
2019-05-18T16:29:30.089Z,100398.48
2019-05-18T16:31:58.504Z,100393.41
2019-05-18T16:34:26.910Z,100398.59
2019-05-18T16:36:55.342Z,100408.28
2019-05-18T16:39:23.794Z,100404.01
2019-05-18T16:41:52.198Z,100397.38
2019-05-18T16:44:20.633Z,100402.24
2019-05-18T16:46:49.068Z,100397.52
2019-05-18T16:49:19.442Z,100401.48
2019-05-18T16:51:47.929Z,100404.05
2019-05-18T16:54:16.335Z,100407.14
2019-05-18T16:56:44.765Z,100414.22
2019-05-18T16:59:13.224Z,100414.25
2019-05-18T17:01:42.732Z,100412.31
2019-05-18T17:04:11.200Z,100402.12
2019-05-18T17:06:39.602Z,100408.88
2019-05-18T17:09:08.124Z,100411.41
2019-05-18T17:11:36.539Z,100415.73
2019-05-18T17:14:05.038Z,100421.02
2019-05-18T17:16:33.507Z,100425.59
2019-05-18T17:19:05.965Z,100430.04
2019-05-18T17:21:34.406Z,100426.52
2019-05-18T17:24:02.826Z,100425.45
2019-05-18T17:26:31.255Z,100431.78
2019-05-18T17:28:59.676Z,100426.17
2019-05-18T17:31:28.090Z,100424.48
2019-05-18T17:33:59.409Z,100434.73
2019-05-18T17:36:27.831Z,100437.94
2019-05-18T17:38:56.272Z,100442.73
2019-05-18T17:41:24.758Z,100440.20
2019-05-18T17:43:53.177Z,100444.28
2019-05-18T17:46:21.605Z,100444.59
2019-05-18T17:48:50.027Z,100440.05
2019-05-18T17:51:18.448Z,100444.30
2019-05-18T17:53:46.886Z,100438.36
2019-05-18T17:56:15.319Z,100440.25
2019-05-18T17:58:43.735Z,100433.31
2019-05-18T18:01:12.194Z,100441.47
2019-05-18T18:03:44.751Z,100446.86
2019-05-18T18:06:13.171Z,100447.52
2019-05-18T18:08:41.593Z,100452.18
2019-05-18T18:11:11.884Z,100449.57
2019-05-18T18:13:40.309Z,100452.83
2019-05-18T18:16:08.801Z,100444.73
2019-05-18T18:18:38.285Z,100448.27
2019-05-18T18:21:11.322Z,100444.17
2019-05-18T18:23:39.912Z,100445.52
2019-05-18T18:26:08.312Z,100456.30
2019-05-18T18:28:36.735Z,100454.88
2019-05-18T18:31:05.221Z,100456.16
2019-05-18T18:33:33.703Z,100457.13
2019-05-18T18:36:02.105Z,100462.97
2019-05-18T18:38:32.912Z,100462.86
2019-05-18T18:41:00.685Z,100460.84
2019-05-18T18:43:31.620Z,100461.42
2019-05-18T18:46:00.044Z,100462.13
2019-05-18T18:48:28.489Z,100467.40
2019-05-18T18:50:56.943Z,100465.28
2019-05-18T18:53:25.414Z,100463.91
2019-05-18T18:55:54.687Z,100471.77
2019-05-18T18:58:23.094Z,100472.22
2019-05-18T19:00:51.547Z,100472.62
2019-05-18T19:03:19.967Z,100478.16
2019-05-18T19:05:48.379Z,100471.77
2019-05-18T19:08:16.839Z,100482.39
2019-05-18T19:10:45.271Z,100483.77
2019-05-18T19:13:13.684Z,100485.30
2019-05-18T19:15:42.135Z,100480.06
2019-05-18T19:18:10.563Z,100485.45
2019-05-18T19:20:39.024Z,100484.70
2019-05-18T19:23:07.608Z,100488.22
2019-05-18T19:25:36.066Z,100495.06
2019-05-18T19:28:04.472Z,100500.66
2019-05-18T19:30:33.848Z,100500.67
2019-05-18T19:33:02.328Z,100503.34
2019-05-18T19:35:30.709Z,100495.47
2019-05-18T19:37:59.114Z,100499.81
2019-05-18T19:40:28.025Z,100497.53
2019-05-18T19:42:56.448Z,100504.64
2019-05-18T19:45:25.539Z,100504.52
2019-05-18T19:47:53.983Z,100507.69
2019-05-18T19:50:22.397Z,100509.36
2019-05-18T19:52:50.825Z,100508.62
2019-05-18T19:55:19.238Z,100519.13
2019-05-18T19:57:47.652Z,100514.76
2019-05-18T20:00:16.759Z,100517.22
2019-05-18T20:02:47.831Z,100512.35
2019-05-18T20:05:16.606Z,100511.12
2019-05-18T20:07:45.049Z,100516.20
2019-05-18T20:10:14.831Z,100522.13
2019-05-18T20:12:43.857Z,100514.28
2019-05-18T20:15:12.947Z,100517.88
2019-05-18T20:17:41.450Z,100515.35
2019-05-18T20:20:11.772Z,100515.09
2019-05-18T20:22:42.744Z,100521.63
2019-05-18T20:25:11.470Z,100512.14
2019-05-18T20:27:39.894Z,100508.69
2019-05-18T20:30:10.454Z,100505.70
2019-05-18T20:32:39.030Z,100523.38
2019-05-18T20:35:07.744Z,100514.43
2019-05-18T20:37:36.200Z,100515.92
2019-05-18T20:40:08.447Z,100515.66
2019-05-18T20:42:37.645Z,100506.91
2019-05-18T20:45:06.818Z,100515.52
2019-05-18T20:47:35.306Z,100520.64
2019-05-18T20:50:04.988Z,100522.18
2019-05-18T20:52:33.391Z,100515.83
2019-05-18T20:55:06.283Z,100511.52
2019-05-18T20:57:34.739Z,100518.33
2019-05-18T21:00:03.272Z,100515.22
2019-05-18T21:02:32.486Z,100520.08
2019-05-18T21:05:00.902Z,100524.33
2019-05-18T21:07:29.319Z,100521.45
2019-05-18T21:09:58.823Z,100520.77
2019-05-18T21:12:27.253Z,100520.00
2019-05-18T21:14:55.657Z,100532.47
2019-05-18T21:17:24.165Z,100528.59
2019-05-18T21:19:54.725Z,100524.70
2019-05-18T21:22:23.137Z,100517.38
2019-05-18T21:24:51.545Z,100519.80
2019-05-18T21:27:20.470Z,100520.97
2019-05-18T21:29:48.949Z,100526.76
2019-05-18T21:32:24.545Z,100523.83
2019-05-18T21:34:52.988Z,100528.61
2019-05-18T21:37:21.407Z,100521.41
2019-05-18T21:39:49.842Z,100524.41
2019-05-18T21:42:20.718Z,100524.41
2019-05-18T21:44:49.159Z,100527.12
2019-05-18T21:47:18.497Z,100531.73
2019-05-18T21:49:46.940Z,100527.98
2019-05-18T21:52:18.286Z,100526.69
2019-05-18T21:54:46.724Z,100522.42
2019-05-18T21:57:15.191Z,100522.82
2019-05-18T21:59:43.660Z,100523.52
2019-05-18T22:02:12.302Z,100518.05
2019-05-18T22:04:51.057Z,100522.98
2019-05-18T22:07:19.270Z,100518.96
2019-05-18T22:09:48.629Z,100519.97
2019-05-18T22:12:17.034Z,100518.63
2019-05-18T22:14:45.491Z,100512.22
2019-05-18T22:17:13.909Z,100518.19
2019-05-18T22:19:43.457Z,100521.18
2019-05-18T22:22:12.822Z,100516.27
2019-05-18T22:24:42.257Z,100513.21
2019-05-18T22:27:10.721Z,100517.22
2019-05-18T22:29:41.929Z,100513.50
2019-05-18T22:32:10.362Z,100509.78
2019-05-18T22:34:41.916Z,100514.25
2019-05-18T22:37:08.971Z,100514.25
2019-05-18T22:39:42.461Z,100511.74
2019-05-18T22:42:11.442Z,100508.02
2019-05-18T22:44:39.875Z,100515.81
2019-05-18T22:47:09.112Z,100508.42
2019-05-18T22:49:41.034Z,100503.39
2019-05-18T22:52:09.485Z,100501.05
2019-05-18T22:54:39.004Z,100498.58
2019-05-18T22:57:07.448Z,100498.91
2019-05-18T22:59:35.882Z,100498.01
2019-05-18T23:02:06.306Z,100502.02
2019-05-18T23:04:38.580Z,100501.95
2019-05-18T23:07:11.956Z,100502.91
2019-05-18T23:09:40.397Z,100501.37
2019-05-18T23:12:19.895Z,100503.97
2019-05-18T23:14:48.655Z,100507.41
2019-05-18T23:17:18.193Z,100501.30
2019-05-18T23:19:46.613Z,100504.37
2019-05-18T23:22:15.157Z,100503.47
2019-05-18T23:24:43.606Z,100504.12
2019-05-18T23:27:12.010Z,100500.28
2019-05-18T23:29:43.184Z,100497.11
2019-05-18T23:32:11.540Z,100498.77
2019-05-18T23:34:40.007Z,100498.90
2019-05-18T23:37:08.416Z,100502.95
2019-05-18T23:39:36.879Z,100497.48
2019-05-18T23:42:05.483Z,100491.04
2019-05-18T23:44:34.956Z,100483.87
2019-05-18T23:47:05.928Z,100487.75
2019-05-18T23:49:34.374Z,100489.98
2019-05-18T23:52:02.836Z,100479.73
2019-05-18T23:54:31.279Z,100487.09
2019-05-18T23:56:59.711Z,100491.59
2019-05-18T23:59:28.172Z,100495.03
